Capitol Logistics 2295


KSDF
Louisville International Airport-Standiford Field
Louisville, Kentucky, US
KMIA
Miami International Airport
Miami, Florida, US

Activity Log

Date Flight Route Aircraft Duration
No Flights Yet

Route Details

Aircraft Information
Primary: Boeing 747-400BCF
Backup: Boeing 767-300BDSF
Date Restrictions
Between:Nov 16, 2019
Dec 31, 2019
Route Data
Distance: 794nm
Sched. Duration: 2h 00m
Avg. Duration: 0h 00m (-201m)
Times Flown: 0
Recm'd Route: FEDRA5 OHAGI ATL HONID BULZI NICKI Q81 ENDEW JUULI SSCOT5
Planned Altitude: 33,000ft
Origin Wx: KSDF 282256Z 29012KT 10SM FEW020 BKN055 OVC060 04/M04 A3005 RMK AO2 SLP177 VIRGA W-N-E T00391044
Dest. Wx: KMIA 282253Z VRB06KT 10SM CLR 19/04 A3020 RMK AO2 SLP225 T01890039
Notes: SEASONAL FLIGHT | UPS SURGE OPS CONTRACT

Financial History
Total Freight: 0lbs
Average Load: 0lbs/flt
Fuel Used: 0lbs
Avg. Fuel Used: 0lbs/flt
Fuel Expense: $0
Avg. Fuel Expense: $0
Avg. Fuel Cost: $0/lbs
Total Gross Income: $0
Pilot Pay: $0
Total Expenses: $0
Total Revenue: $0
Average Revenue: $0